Time;durP1;ratioP1;P1;durP2;ratioP2;P2;SDS_P1;SDS_P2;PMS_P1;PMS_P2;Temp;Humidity;BMP_temperature;BMP_pressure;BME280_temperature;BME280_humidity;BME280_pressure;Samples;Min_cycle;Max_cycle;Signal;HPM_P1;HPM_P2
2023/02/07 00:02:13;;;;;;;313.20;134.50;;;;;;;-8.28;78.51;100932.52;435670;1252;109499;-40
2023/02/07 00:22:27;;;;;;;252.50;114.50;;;;;;;-8.21;78.59;100960.35;435614;1252;97896;-40
2023/02/07 00:32:34;;;;;;;301.50;129.20;;;;;;;-8.19;78.56;100972.23;435691;1251;108122;-41
2023/02/07 00:42:40;;;;;;;280.40;118.10;;;;;;;-8.44;78.07;100966.62;435524;1251;97857;-40
2023/02/07 00:52:46;;;;;;;249.60;109.60;;;;;;;-8.64;78.35;100942.34;435640;1254;110260;-39
2023/02/07 01:02:53;;;;;;;234.70;105.10;;;;;;;-8.70;78.59;100928.70;435537;1251;108449;-40
2023/02/07 01:13:01;;;;;;;233.40;102.30;;;;;;;-8.71;78.45;100909.61;435806;1249;97890;-40
2023/02/07 01:23:08;;;;;;;216.60;98.70;;;;;;;-8.74;78.48;100897.58;435678;1253;108117;-40
2023/02/07 01:33:15;;;;;;;196.60;88.00;;;;;;;-8.76;78.57;100888.56;435687;1251;97876;-39
2023/02/07 01:43:24;;;;;;;204.70;91.70;;;;;;;-8.83;78.57;100900.92;435787;1251;111290;-43
2023/02/07 01:53:33;;;;;;;192.70;84.30;;;;;;;-8.77;78.73;100895.79;435732;1254;107755;-39
2023/02/07 02:03:45;;;;;;;168.20;77.30;;;;;;;-8.89;78.71;100879.09;435841;1251;97899;-40
2023/02/07 02:13:55;;;;;;;155.30;70.10;;;;;;;-8.76;79.05;100881.73;437302;1251;106936;-41
2023/02/07 02:24:08;;;;;;;144.50;65.80;;;;;;;-8.73;78.91;100873.08;437157;1248;97531;-41
2023/02/07 02:34:18;;;;;;;125.40;56.30;;;;;;;-8.80;79.06;100888.34;437233;1247;109323;-40
2023/02/07 02:44:33;;;;;;;106.40;53.20;;;;;;;-8.89;78.86;100892.10;437104;1251;107534;-40
2023/02/07 02:54:41;;;;;;;152.60;76.30;;;;;;;-8.89;79.01;100890.21;437104;1248;97854;-40
2023/02/07 03:04:54;;;;;;;296.50;131.40;;;;;;;-8.90;79.29;100891.79;437172;1251;108036;-39
2023/02/07 03:15:06;;;;;;;286.40;122.60;;;;;;;-9.04;78.99;100890.87;436944;1251;97958;-41
2023/02/07 03:25:17;;;;;;;243.90;109.20;;;;;;;-9.18;79.01;100904.66;436417;1248;467983;-41
2023/02/07 03:35:22;;;;;;;241.50;103.20;;;;;;;-9.38;78.79;100907.86;436752;1247;107188;-39
2023/02/07 03:45:30;;;;;;;204.80;93.30;;;;;;;-9.42;79.11;100908.67;436579;1254;96622;-40
2023/02/07 03:55:37;;;;;;;177.10;83.40;;;;;;;-9.35;79.45;100913.39;436611;1251;108708;-40
2023/02/07 04:05:43;;;;;;;155.70;75.50;;;;;;;-9.30;78.94;100912.73;436632;1251;97870;-39
2023/02/07 04:15:51;;;;;;;249.50;100.70;;;;;;;-9.23;79.16;100913.02;436543;1247;110066;-40
2023/02/07 04:25:58;;;;;;;224.90;99.60;;;;;;;-9.20;79.18;100907.98;436520;1247;110010;-40
2023/02/07 04:36:06;;;;;;;204.80;91.50;;;;;;;-9.08;79.29;100898.36;436541;1247;96939;-39
2023/02/07 04:46:13;;;;;;;250.50;106.10;;;;;;;-8.91;79.50;100898.14;436671;1247;107836;-40
2023/02/07 04:56:21;;;;;;;239.50;106.20;;;;;;;-8.63;79.93;100892.73;436744;1248;96612;-40
2023/02/07 05:06:28;;;;;;;350.70;131.10;;;;;;;-8.45;79.89;100905.27;436670;1247;110417;-40
2023/02/07 05:16:35;;;;;;;243.00;111.40;;;;;;;-8.42;79.88;100910.12;437486;1251;108039;-39
2023/02/07 05:26:42;;;;;;;230.40;101.00;;;;;;;-8.40;79.77;100913.83;437032;1247;97900;-40
2023/02/07 05:36:49;;;;;;;209.60;93.70;;;;;;;-8.35;80.08;100912.11;436796;1247;107804;-40
2023/02/07 05:46:56;;;;;;;223.10;93.40;;;;;;;-8.34;80.05;100914.45;436982;1247;96619;-40
2023/02/07 05:57:04;;;;;;;251.10;97.60;;;;;;;-8.33;80.11;100911.67;437528;1247;109819;-40
2023/02/07 06:07:12;;;;;;;286.00;113.00;;;;;;;-8.15;80.15;100907.41;437340;1247;107242;-40
2023/02/07 06:17:19;;;;;;;284.30;112.60;;;;;;;-7.94;80.61;100914.00;438139;1247;97437;-39
2023/02/07 06:27:26;;;;;;;248.50;106.60;;;;;;;-7.55;80.82;100925.20;437388;1250;107815;-42
2023/02/07 06:37:33;;;;;;;218.50;99.00;;;;;;;-7.09;81.34;100932.79;437408;1250;97450;-40
2023/02/07 06:47:41;;;;;;;192.50;81.30;;;;;;;-6.62;81.51;100935.52;437410;1247;110643;-41
2023/02/07 06:57:48;;;;;;;253.10;98.40;;;;;;;-6.24;81.66;100940.23;437367;1247;107761;-40
2023/02/07 07:07:56;;;;;;;160.00;72.10;;;;;;;-5.93;81.77;100943.14;437414;1247;96636;-40
2023/02/07 07:18:03;;;;;;;163.30;76.60;;;;;;;-5.66;81.84;100943.09;437390;1248;108672;-40
2023/02/07 07:28:10;;;;;;;136.30;67.40;;;;;;;-5.43;81.89;100936.91;437386;1247;97046;-40
2023/02/07 07:38:18;;;;;;;131.30;59.20;;;;;;;-5.25;82.08;100936.35;437512;1250;110160;-40
2023/02/07 07:48:26;;;;;;;108.50;52.30;;;;;;;-4.94;82.20;100928.34;437283;1250;107638;-41
2023/02/07 07:58:34;;;;;;;170.00;78.10;;;;;;;-4.75;82.27;100934.96;437485;1247;97746;-39
2023/02/07 08:08:41;;;;;;;162.20;68.30;;;;;;;-4.80;82.15;100943.81;437478;1250;110492;-38
2023/02/07 08:18:48;;;;;;;130.00;57.00;;;;;;;-4.79;82.10;100949.30;437546;1247;107723;-38
2023/02/07 08:28:56;;;;;;;141.40;59.70;;;;;;;-4.76;82.38;100949.98;437462;1246;97912;-40
2023/02/07 08:39:03;;;;;;;130.30;57.40;;;;;;;-4.70;82.57;100943.31;437550;1250;110001;-40
2023/02/07 08:49:11;;;;;;;;;;;;;;;-4.55;82.72;100942.76;439173;1250;109461;-40
2023/02/07 08:59:18;;;;;;;137.80;58.30;;;;;;;-4.34;82.83;100944.43;437455;1250;97838;-40
2023/02/07 09:09:26;;;;;;;126.40;64.10;;;;;;;-4.09;82.84;100935.41;437442;1247;97707;-40
2023/02/07 09:19:34;;;;;;;96.10;52.70;;;;;;;-3.79;82.85;100936.73;437388;1250;108440;-40
2023/02/07 09:29:41;;;;;;;128.80;58.60;;;;;;;-3.55;83.09;100937.14;437340;1248;97895;-41
2023/02/07 09:39:49;;;;;;;130.00;61.70;;;;;;;-3.46;83.38;100934.41;437477;1250;109775;-39
2023/02/07 09:49:57;;;;;;;130.20;62.10;;;;;;;-3.38;83.50;100924.81;437367;1250;108045;-40
2023/02/07 10:00:19;;;;;;;118.20;54.30;;;;;;;-3.21;83.55;100922.02;437368;1248;96622;-41
2023/02/07 10:20:40;;;;;;;79.60;41.50;;;;;;;-2.77;83.47;100908.59;437622;1247;108710;-40
2023/02/07 10:30:46;;;;;;;;;;;;;;;-2.62;83.76;100907.40;437674;1250;97902;-39
2023/02/07 10:40:52;;;;;;;87.50;37.90;;;;;;;-2.60;84.02;100899.48;437671;1250;107752;-39
2023/02/07 10:51:03;;;;;;;92.10;41.40;;;;;;;-2.59;84.05;100903.93;437676;1250;97478;-39
2023/02/07 11:01:17;;;;;;;94.10;42.50;;;;;;;-2.57;83.95;100900.23;437715;1250;97881;-40
2023/02/07 11:11:26;;;;;;;66.70;35.80;;;;;;;-2.41;83.99;100903.55;437465;1247;110865;-40
2023/02/07 11:21:39;;;;;;;83.60;38.10;;;;;;;-2.22;83.92;100901.88;437324;1251;107556;-39
2023/02/07 11:31:48;;;;;;;99.40;46.10;;;;;;;-2.27;83.83;100901.48;437480;1250;96985;-40
2023/02/07 11:41:54;;;;;;;96.20;46.50;;;;;;;-2.43;84.16;100903.29;437525;1250;111700;-40
2023/02/07 11:52:03;;;;;;;74.10;38.80;;;;;;;-2.38;84.17;100895.45;437453;1250;107893;-40
2023/02/07 12:02:16;;;;;;;69.40;36.40;;;;;;;-2.40;84.03;100891.39;437424;1250;96640;-40
2023/02/07 12:12:29;;;;;;;104.80;48.30;;;;;;;-2.47;84.19;100895.41;437554;1250;110836;-39
2023/02/07 12:22:38;;;;;;;116.70;50.50;;;;;;;-2.53;84.10;100888.52;437509;1247;109638;-40
2023/02/07 12:32:49;;;;;;;106.40;48.90;;;;;;;-2.58;84.18;100876.80;437529;1250;97867;-40
2023/02/07 12:42:58;;;;;;;79.10;38.70;;;;;;;-2.52;84.06;100869.12;437556;1248;97857;-41
2023/02/07 12:53:08;;;;;;;72.80;35.20;;;;;;;-2.31;84.12;100861.49;437440;1250;107835;-40
2023/02/07 13:03:27;;;;;;;98.70;46.40;;;;;;;-2.14;84.17;100860.27;439193;1250;97914;-38
2023/02/07 13:23:47;;;;;;;68.60;34.90;;;;;;;-1.96;84.04;100855.88;441447;1250;109912;-40
2023/02/07 13:33:55;;;;;;;47.60;26.10;;;;;;;-1.79;84.07;100862.97;439825;1250;107589;-40
2023/02/07 13:44:03;;;;;;;78.20;36.90;;;;;;;-1.76;84.09;100858.94;440492;1250;97869;-39
2023/02/07 13:54:17;;;;;;;89.20;41.40;;;;;;;-1.86;83.94;100849.38;439116;1250;97371;-39
2023/02/07 14:04:45;;;;;;;77.00;35.80;;;;;;;-1.97;84.04;100848.36;440914;1247;109962;-40
2023/02/07 14:14:53;;;;;;;55.10;27.10;;;;;;;-2.02;83.89;100858.48;440856;1250;107384;-39
2023/02/07 14:25:37;;;;;;;48.20;25.70;;;;;;;-2.01;83.82;100849.14;440924;1247;97879;-39
2023/02/07 14:46:07;;;;;;;67.20;31.70;;;;;;;-2.23;83.96;100824.86;440177;1250;107964;-40
2023/02/07 14:56:16;;;;;;;75.00;36.30;;;;;;;-2.37;83.70;100827.83;440967;1248;109283;-40
2023/02/07 15:16:40;;;;;;;54.20;27.60;;;;;;;-2.53;83.62;100844.52;440771;1247;110132;-40
2023/02/07 15:26:48;;;;;;;;;;;;;;;-2.52;83.70;100874.15;441317;1250;311326;-40
2023/02/07 15:36:56;;;;;;;65.10;30.20;;;;;;;-2.54;83.66;100892.74;437302;1250;97913;-39
2023/02/07 15:57:11;;;;;;;73.00;30.50;;;;;;;-2.84;83.79;100916.27;437586;1250;108866;-40
2023/02/07 16:07:18;;;;;;;63.80;30.80;;;;;;;-2.93;83.96;100924.02;438760;1251;97867;-40
2023/02/07 16:17:40;;;;;;;64.40;32.30;;;;;;;-2.94;83.99;100930.48;439675;1260;109960;-39
2023/02/07 16:27:45;;;;;;;44.70;26.20;;;;;;;-2.89;83.93;100936.22;437918;1250;107577;-39
2023/02/07 16:37:54;;;;;;;58.50;30.70;;;;;;;-2.85;84.18;100932.17;440557;1250;98801;-40
2023/02/07 16:48:01;;;;;;;67.90;29.70;;;;;;;-2.82;84.20;100939.95;437543;1251;106677;-39
2023/02/07 16:58:18;;;;;;;79.70;35.20;;;;;;;-2.91;84.23;100945.14;438482;1248;97987;-40
2023/02/07 17:18:33;;;;;;;88.10;38.10;;;;;;;-3.06;84.37;100960.86;437647;1254;108120;-39
2023/02/07 17:28:40;;;;;;;69.30;34.40;;;;;;;-3.07;84.25;100963.98;437456;1250;99226;-39
2023/02/07 17:38:47;;;;;;;62.10;33.10;;;;;;;-2.99;84.39;100973.57;439030;1250;110450;-39
2023/02/07 17:48:56;;;;;;;64.60;28.80;;;;;;;-2.89;84.35;100978.15;439228;1247;108605;-39
2023/02/07 17:59:06;;;;;;;86.90;35.90;;;;;;;-2.90;84.41;100983.74;440660;1251;98833;-39
2023/02/07 18:09:13;;;;;;;83.90;37.10;;;;;;;-2.96;84.50;100982.89;440358;1248;110516;-39
2023/02/07 18:19:20;;;;;;;109.30;45.50;;;;;;;-3.03;84.64;100997.30;438474;1250;106662;-39
2023/02/07 18:29:28;;;;;;;67.30;32.10;;;;;;;-3.10;84.63;101009.70;437482;1248;99227;-40
2023/02/07 18:39:35;;;;;;;72.50;32.80;;;;;;;-3.16;84.82;101016.75;437499;1247;111744;-38
2023/02/07 18:49:41;;;;;;;80.20;40.10;;;;;;;-3.14;84.62;101014.58;437279;1260;110450;-38
2023/02/07 18:59:48;;;;;;;105.50;49.20;;;;;;;-3.03;84.63;101004.85;437426;1248;99112;-40
2023/02/07 19:09:54;;;;;;;103.50;45.60;;;;;;;-2.89;84.71;101011.48;437503;1251;107632;-39
2023/02/07 19:20:02;;;;;;;106.70;41.10;;;;;;;-2.85;84.95;101010.21;437615;1250;99260;-40
2023/02/07 19:30:11;;;;;;;116.40;44.30;;;;;;;-2.93;84.78;101016.55;437497;1255;111483;-39
2023/02/07 19:40:18;;;;;;;87.70;39.10;;;;;;;-3.06;84.85;101022.59;437561;1251;108399;-40
2023/02/07 19:50:26;;;;;;;109.00;45.20;;;;;;;-3.16;84.80;101026.75;437473;1247;99205;-39
2023/02/07 20:00:33;;;;;;;96.70;43.00;;;;;;;-3.21;85.01;101023.92;437375;1250;112751;-40
2023/02/07 20:10:41;;;;;;;90.90;45.20;;;;;;;-3.19;85.04;101028.66;437496;1251;107530;-40
2023/02/07 20:20:48;;;;;;;86.90;43.40;;;;;;;-3.09;84.97;101040.34;437393;1250;99109;-40
2023/02/07 20:30:57;;;;;;;76.70;36.70;;;;;;;-2.97;85.08;101039.70;437426;1250;109167;-39
2023/02/07 20:41:05;;;;;;;126.90;52.70;;;;;;;-2.85;85.43;101046.64;437484;1247;98029;-40
2023/02/07 20:51:13;;;;;;;129.20;54.70;;;;;;;-2.88;85.23;101059.05;437425;1250;111232;-38
2023/02/07 21:01:22;;;;;;;152.10;56.90;;;;;;;-2.97;85.48;101063.90;437511;1251;107354;-39
2023/02/07 21:21:39;;;;;;;96.00;43.30;;;;;;;-3.17;85.23;101064.61;437361;1247;111470;-40
2023/02/07 21:31:47;;;;;;;104.90;50.50;;;;;;;-3.17;85.39;101062.55;437489;1246;107753;-40
2023/02/07 21:41:55;;;;;;;84.80;45.30;;;;;;;-3.06;85.48;101069.35;437507;1250;98047;-39
2023/02/07 21:52:03;;;;;;;78.50;37.70;;;;;;;-2.90;85.76;101068.00;437408;1247;107127;-40
2023/02/07 22:02:12;;;;;;;99.40;44.60;;;;;;;-2.82;85.66;101068.90;437471;1250;99233;-47
2023/02/07 22:12:19;;;;;;;103.60;46.90;;;;;;;-2.78;85.71;101070.23;437539;1250;112182;-38
2023/02/07 22:22:27;;;;;;;134.50;54.10;;;;;;;-2.88;85.78;101071.61;437502;1247;109347;-38
2023/02/07 22:32:33;;;;;;;131.70;50.80;;;;;;;-2.99;85.69;101076.77;437490;1247;97974;-38
2023/02/07 22:42:40;;;;;;;128.60;51.70;;;;;;;-3.08;85.68;101084.63;437556;1247;108319;-39
2023/02/07 22:52:48;;;;;;;94.30;45.30;;;;;;;-3.14;85.69;101088.60;437422;1247;98804;-39
2023/02/07 23:02:56;;;;;;;99.30;51.30;;;;;;;-3.12;85.66;101092.45;437434;1250;111475;-39
2023/02/07 23:13:04;;;;;;;79.60;40.90;;;;;;;-3.02;85.81;101090.37;437435;1250;109763;-39
2023/02/07 23:23:11;;;;;;;112.10;50.70;;;;;;;-2.93;85.70;101088.48;437428;1248;98090;-40
2023/02/07 23:33:19;;;;;;;100.10;48.20;;;;;;;-2.86;86.09;101101.23;437361;1251;107185;-38
2023/02/07 23:43:25;;;;;;;120.10;51.90;;;;;;;-2.96;85.84;101100.77;437508;1246;98026;-38
2023/02/07 23:53:32;;;;;;;111.20;47.70;;;;;;;-3.05;86.11;101109.20;437541;1246;111059;-38
